Main page
METAR-TAF:

METAR-TAF

Airports :

Chetwynd Airport

Chetwynd, British Columbia, Canada

latitude: 55-42N, longitude: 121-38W, elevation: 609 m

Current weather observation

The report was made 2 hours and 12 minutes ago, at 01:00 UTC
Wind 15 kt from the South/Southwest with gusts up to 24 kt
Temperature 19°C
Humidity 43%
Pressure 1003 hPa
Visibility: 56.3 km
Few clouds at a height of 6000 ft
Scattered clouds at a height of 10000 ft
Broken clouds at a height of 23000 ft

METAR: CYCQ 240100Z 21015G24KT 35SM FEW060 SCT100 BKN230 19/06 A2963 RMK SC2AC2CI3 LAST STFD OBS/NXT 241300Z SLP043 DENSITY ALT 3300FT

Time: 20:12 (03:12 UTC)


TAF: missing

Weather observations and forecasts of more than 4000 airports (METAR and TAF reports).

The available stations are represented by yellow and red dots on the map.

Hover mouse over dot to see the name of the station.

Then click to see weather observations and forecasts.

To change the map : click on the green buttons with a black cross to zoom in, on the green button with a dash to zoom out, or on the green arrows for adjacent maps.


METAR-TAF: